createdAt,value
2017-06-13T00:00:11.401Z,17.00
2017-06-13T00:02:39.698Z,17.00
2017-06-13T00:05:07.962Z,17.00
2017-06-13T00:07:35.504Z,17.00
2017-06-13T00:10:02.995Z,17.00
2017-06-13T00:12:31.309Z,17.00
2017-06-13T00:14:59.586Z,17.00
2017-06-13T00:17:27.093Z,17.00
2017-06-13T00:19:54.633Z,17.00
2017-06-13T00:22:22.912Z,17.00
2017-06-13T00:24:50.464Z,17.00
2017-06-13T00:27:17.967Z,17.00
2017-06-13T00:29:47.131Z,16.90
2017-06-13T00:32:15.423Z,16.90
2017-06-13T00:34:43.699Z,17.00
2017-06-13T00:37:11.513Z,16.90
2017-06-13T00:39:39.013Z,17.00
2017-06-13T00:42:07.297Z,16.90
2017-06-13T00:44:34.827Z,16.90
2017-06-13T00:47:02.319Z,16.90
2017-06-13T00:49:29.873Z,16.90
2017-06-13T00:51:58.142Z,16.90
2017-06-13T00:54:25.650Z,16.90
2017-06-13T00:56:53.956Z,17.00
2017-06-13T00:59:21.462Z,16.90
2017-06-13T01:01:49.756Z,16.80
2017-06-13T01:04:18.032Z,16.80
2017-06-13T01:06:45.576Z,16.80
2017-06-13T01:09:13.089Z,16.80
2017-06-13T01:11:41.397Z,16.90
2017-06-13T01:14:08.893Z,16.90
2017-06-13T01:16:37.156Z,16.80
2017-06-13T01:19:05.459Z,16.70
2017-06-13T01:21:33.733Z,16.80
2017-06-13T01:24:02.054Z,16.70
2017-06-13T01:26:30.320Z,16.60
2017-06-13T01:28:58.584Z,16.60
2017-06-13T01:31:26.880Z,16.60
2017-06-13T01:33:54.416Z,16.60
2017-06-13T01:36:22.688Z,16.70
2017-06-13T01:38:51.022Z,16.60
2017-06-13T01:41:19.285Z,16.60
2017-06-13T01:43:46.783Z,16.60
2017-06-13T01:46:14.305Z,16.60
2017-06-13T01:48:41.832Z,16.50
2017-06-13T01:51:10.100Z,16.60
2017-06-13T01:53:38.391Z,16.60
2017-06-13T01:56:05.892Z,16.60
2017-06-13T01:58:33.415Z,16.60
2017-06-13T02:01:01.750Z,16.70
2017-06-13T02:03:29.250Z,16.70
2017-06-13T02:05:57.519Z,16.50
2017-06-13T02:08:25.067Z,16.50
2017-06-13T02:10:53.337Z,16.50
2017-06-13T02:13:21.601Z,16.50
2017-06-13T02:15:49.139Z,16.50
2017-06-13T02:18:16.645Z,16.40
2017-06-13T02:20:44.187Z,16.40
2017-06-13T02:23:12.450Z,16.40
2017-06-13T02:25:40.721Z,16.50
2017-06-13T02:28:08.265Z,16.50
2017-06-13T02:30:35.768Z,16.50
2017-06-13T02:33:04.025Z,16.50
2017-06-13T02:35:32.320Z,16.40
2017-06-13T02:38:00.587Z,16.40
2017-06-13T02:40:28.124Z,16.30
2017-06-13T02:42:56.428Z,16.30
2017-06-13T02:45:23.919Z,16.30
2017-06-13T02:47:51.423Z,16.30
2017-06-13T02:50:18.977Z,16.30
2017-06-13T02:52:47.236Z,16.20
2017-06-13T02:55:15.501Z,16.20
2017-06-13T02:57:43.019Z,16.20
2017-06-13T03:00:11.423Z,16.20
2017-06-13T03:02:39.727Z,16.10
2017-06-13T03:05:07.985Z,16.10
2017-06-13T03:07:35.489Z,16.10
2017-06-13T03:10:03.001Z,16.10
2017-06-13T03:12:31.262Z,16.10
2017-06-13T03:14:58.807Z,16.10
2017-06-13T03:17:27.064Z,16.00
2017-06-13T03:19:54.567Z,16.00
2017-06-13T03:22:22.869Z,15.80
2017-06-13T03:24:51.133Z,15.80
2017-06-13T03:27:18.631Z,15.80
2017-06-13T03:29:47.896Z,15.80
2017-06-13T03:32:16.164Z,15.80
2017-06-13T03:34:44.477Z,15.80
2017-06-13T03:37:12.736Z,15.80
2017-06-13T03:39:40.241Z,15.80
2017-06-13T03:42:08.538Z,15.70
2017-06-13T03:44:36.037Z,15.70
2017-06-13T03:47:03.569Z,15.80
2017-06-13T03:49:31.060Z,15.70
2017-06-13T03:51:59.366Z,15.80
2017-06-13T03:54:26.865Z,15.80
2017-06-13T03:56:55.131Z,15.90
2017-06-13T03:59:23.428Z,15.70
2017-06-13T04:01:51.701Z,15.70
2017-06-13T04:04:19.969Z,15.60
2017-06-13T04:06:48.273Z,15.50
2017-06-13T04:09:15.778Z,15.50
2017-06-13T04:11:44.093Z,15.60
2017-06-13T04:14:11.593Z,15.60
2017-06-13T04:16:39.853Z,15.60
2017-06-13T04:19:08.316Z,15.60
2017-06-13T04:21:36.580Z,15.70
2017-06-13T04:24:04.837Z,15.70
2017-06-13T04:26:32.376Z,15.80
2017-06-13T04:29:00.646Z,15.60
2017-06-13T04:31:28.909Z,15.60
2017-06-13T04:33:57.360Z,15.60
2017-06-13T04:36:24.912Z,15.70
2017-06-13T04:38:53.186Z,15.50
2017-06-13T04:41:21.460Z,15.60
2017-06-13T04:43:48.986Z,15.50
2017-06-13T04:46:17.293Z,15.50
2017-06-13T04:48:44.793Z,15.50
2017-06-13T04:51:13.060Z,15.60
2017-06-13T04:53:41.378Z,15.60
2017-06-13T04:56:08.881Z,15.60
2017-06-13T04:58:37.155Z,15.50
2017-06-13T05:01:05.452Z,15.50
2017-06-13T05:03:33.713Z,15.60
2017-06-13T05:06:01.244Z,15.60
2017-06-13T05:08:28.744Z,15.60
2017-06-13T05:10:56.313Z,15.60
2017-06-13T05:13:24.569Z,15.60
2017-06-13T05:15:52.829Z,15.60
2017-06-13T05:18:21.121Z,15.50
2017-06-13T05:20:48.619Z,15.50
2017-06-13T05:23:16.924Z,15.50
2017-06-13T05:25:45.191Z,15.60
2017-06-13T05:28:13.453Z,15.60
2017-06-13T05:30:40.981Z,15.60
2017-06-13T05:33:09.237Z,15.70
2017-06-13T05:35:36.785Z,15.70
2017-06-13T05:38:05.049Z,15.60
2017-06-13T05:40:32.535Z,15.60
2017-06-13T05:43:00.844Z,15.60
2017-06-13T05:45:29.105Z,15.80
2017-06-13T05:47:56.601Z,15.80
2017-06-13T05:50:24.152Z,15.90
2017-06-13T05:52:52.412Z,16.00
2017-06-13T05:55:20.677Z,15.90
2017-06-13T05:57:48.967Z,15.90
2017-06-13T06:00:16.463Z,15.90
2017-06-13T06:02:44.824Z,16.00
2017-06-13T06:05:13.087Z,16.00
2017-06-13T06:07:41.363Z,15.90
2017-06-13T06:10:08.888Z,15.90
2017-06-13T06:12:37.184Z,16.10
2017-06-13T06:15:04.693Z,16.10
2017-06-13T06:17:32.989Z,16.10
2017-06-13T06:20:00.492Z,16.10
2017-06-13T06:22:28.780Z,16.30
2017-06-13T06:24:57.105Z,16.30
2017-06-13T06:27:25.548Z,16.30
2017-06-13T06:29:53.043Z,16.20
2017-06-13T06:32:21.338Z,16.30
2017-06-13T06:34:48.909Z,16.30
2017-06-13T06:37:16.449Z,16.20
2017-06-13T06:39:44.875Z,16.30
2017-06-13T06:42:13.142Z,16.40
2017-06-13T06:44:41.460Z,16.60
2017-06-13T06:47:08.964Z,16.50
2017-06-13T06:49:36.506Z,16.70
2017-06-13T06:52:04.771Z,16.80
2017-06-13T06:54:33.036Z,16.90
2017-06-13T06:57:00.586Z,16.90
2017-06-13T06:59:28.078Z,16.90
2017-06-13T07:01:56.346Z,17.10
2017-06-13T07:04:24.647Z,17.10
2017-06-13T07:06:52.911Z,17.10
2017-06-13T07:09:20.412Z,17.10
2017-06-13T07:11:48.697Z,17.20
2017-06-13T07:14:16.973Z,17.30
2017-06-13T07:16:45.270Z,17.30
2017-06-13T07:19:13.531Z,17.50
2017-06-13T07:21:41.796Z,17.60
2017-06-13T07:24:09.323Z,17.50
2017-06-13T07:26:36.817Z,17.60
2017-06-13T07:29:04.355Z,17.70
2017-06-13T07:31:32.636Z,17.80
2017-06-13T07:34:00.924Z,17.80
2017-06-13T07:36:29.229Z,17.90
2017-06-13T07:38:57.496Z,18.00
2017-06-13T07:41:25.760Z,18.30
2017-06-13T07:43:54.052Z,18.30
2017-06-13T07:46:22.363Z,18.30
2017-06-13T07:48:49.873Z,18.30
2017-06-13T07:51:18.168Z,18.20
2017-06-13T07:53:45.711Z,18.20
2017-06-13T07:56:13.203Z,18.40
2017-06-13T07:58:41.457Z,18.50
2017-06-13T08:01:09.759Z,18.30
2017-06-13T08:03:38.028Z,18.40
2017-06-13T08:06:05.575Z,18.40
2017-06-13T08:08:33.831Z,18.60
2017-06-13T08:11:02.091Z,18.70
2017-06-13T08:13:30.382Z,19.00
2017-06-13T08:15:58.634Z,19.00
2017-06-13T08:18:26.889Z,19.00
2017-06-13T08:20:55.181Z,19.00
2017-06-13T08:23:23.448Z,19.10
2017-06-13T08:25:51.774Z,19.30
2017-06-13T08:28:19.270Z,19.20
2017-06-13T08:30:47.524Z,19.40
2017-06-13T08:33:15.812Z,19.40
2017-06-13T08:35:43.307Z,19.40
2017-06-13T08:38:10.810Z,19.40
2017-06-13T08:40:39.103Z,19.40
2017-06-13T08:43:07.361Z,19.50
2017-06-13T08:45:35.669Z,19.50
2017-06-13T08:48:03.151Z,19.50
2017-06-13T08:50:30.643Z,19.50
2017-06-13T08:52:58.931Z,19.50
2017-06-13T08:55:27.193Z,19.60
2017-06-13T08:57:55.492Z,19.70
2017-06-13T09:00:23.755Z,20.00
2017-06-13T09:02:52.017Z,20.20
2017-06-13T09:05:19.550Z,20.20
2017-06-13T09:07:47.821Z,20.40
2017-06-13T09:10:15.347Z,20.40
2017-06-13T09:12:43.624Z,20.10
2017-06-13T09:15:11.921Z,20.20
2017-06-13T09:17:39.419Z,20.20
2017-06-13T09:20:07.727Z,20.50
2017-06-13T09:22:35.997Z,20.70
2017-06-13T09:25:04.257Z,20.80
2017-06-13T09:27:31.780Z,20.80
2017-06-13T09:30:00.085Z,20.70
2017-06-13T09:32:28.351Z,20.50
2017-06-13T09:34:56.620Z,20.30
2017-06-13T09:37:24.165Z,20.30
2017-06-13T09:39:52.428Z,20.10
2017-06-13T09:42:20.690Z,20.00
2017-06-13T09:44:48.995Z,20.00
2017-06-13T09:47:16.496Z,20.00
2017-06-13T09:49:44.758Z,19.80
2017-06-13T09:52:13.044Z,19.80
2017-06-13T09:54:40.536Z,19.80
2017-06-13T09:57:08.072Z,19.90
2017-06-13T09:59:36.339Z,19.90
2017-06-13T10:02:04.604Z,20.00
2017-06-13T10:04:32.887Z,19.90
2017-06-13T10:07:01.152Z,20.00
2017-06-13T10:09:28.675Z,20.10
2017-06-13T10:11:56.997Z,20.10
2017-06-13T10:14:24.488Z,20.10
2017-06-13T10:16:51.990Z,20.20
2017-06-13T10:19:20.297Z,20.20
2017-06-13T10:21:48.552Z,20.30
2017-06-13T10:24:16.080Z,20.30
2017-06-13T10:26:43.583Z,20.40
2017-06-13T10:29:14.063Z,20.80
2017-06-13T10:31:42.463Z,21.10
2017-06-13T10:34:09.957Z,21.10
2017-06-13T10:36:38.494Z,21.10
2017-06-13T10:39:06.022Z,21.10
2017-06-13T10:41:34.348Z,20.80
2017-06-13T10:44:01.860Z,20.80
2017-06-13T10:46:30.131Z,21.00
2017-06-13T10:48:57.665Z,21.00
2017-06-13T10:51:25.922Z,20.80
2017-06-13T10:53:54.233Z,20.90
2017-06-13T10:56:22.500Z,20.80
2017-06-13T10:58:50.005Z,20.80
2017-06-13T11:01:18.313Z,20.90
2017-06-13T11:03:45.820Z,20.90
2017-06-13T11:06:13.332Z,20.90
2017-06-13T11:08:40.894Z,20.90
2017-06-13T11:11:09.169Z,20.90
2017-06-13T11:13:37.448Z,20.70
2017-06-13T11:16:04.984Z,20.70
2017-06-13T11:18:32.498Z,20.70
2017-06-13T11:21:00.768Z,20.80
2017-06-13T11:23:29.077Z,20.90
2017-06-13T11:25:56.571Z,20.90
2017-06-13T11:28:24.079Z,20.80
2017-06-13T11:30:51.619Z,20.90
2017-06-13T11:33:19.879Z,20.60
2017-06-13T11:35:48.248Z,20.70
2017-06-13T11:38:15.757Z,20.70
2017-06-13T11:40:43.259Z,20.60
2017-06-13T11:43:11.567Z,20.40
2017-06-13T11:45:39.064Z,20.40
2017-06-13T11:48:07.328Z,20.70
2017-06-13T11:50:35.631Z,20.90
2017-06-13T11:53:03.904Z,20.80
2017-06-13T11:55:31.462Z,20.80
2017-06-13T11:57:59.732Z,20.80
2017-06-13T12:00:27.237Z,20.80
2017-06-13T12:02:55.537Z,20.90
2017-06-13T12:05:23.795Z,20.80
2017-06-13T12:07:51.297Z,20.90
2017-06-13T12:10:19.590Z,20.40
2017-06-13T12:12:48.120Z,20.40
2017-06-13T12:15:15.669Z,20.40
2017-06-13T12:17:43.170Z,20.30
2017-06-13T12:20:11.433Z,20.30
2017-06-13T12:22:39.749Z,20.40
2017-06-13T12:25:07.243Z,20.40
2017-06-13T12:27:35.584Z,20.60
2017-06-13T12:30:03.845Z,20.60
2017-06-13T12:32:32.129Z,20.50
2017-06-13T12:35:00.437Z,20.50
2017-06-13T12:37:27.936Z,20.50
2017-06-13T12:39:55.436Z,20.50
2017-06-13T12:42:23.744Z,20.50
2017-06-13T12:44:51.236Z,20.50
2017-06-13T12:47:19.505Z,20.60
2017-06-13T12:49:47.804Z,20.50
2017-06-13T12:52:16.069Z,20.60
2017-06-13T12:54:43.617Z,20.60
2017-06-13T12:57:11.112Z,20.60
2017-06-13T12:59:39.369Z,20.90
2017-06-13T13:02:08.590Z,21.00
2017-06-13T13:04:36.107Z,21.00
2017-06-13T13:07:04.383Z,21.10
2017-06-13T13:09:31.948Z,21.10
2017-06-13T13:12:00.276Z,21.20
2017-06-13T13:14:27.823Z,21.20
2017-06-13T13:16:56.090Z,21.10
2017-06-13T13:19:24.373Z,20.90
2017-06-13T13:21:52.675Z,20.90
2017-06-13T13:24:20.164Z,20.90
2017-06-13T13:26:48.470Z,20.90
2017-06-13T13:29:16.779Z,20.90
2017-06-13T13:31:45.046Z,21.00
2017-06-13T13:34:12.546Z,21.00
2017-06-13T13:36:40.843Z,21.00
2017-06-13T13:39:09.114Z,21.10
2017-06-13T13:41:37.421Z,21.00
2017-06-13T13:44:05.689Z,21.00
2017-06-13T13:46:33.179Z,21.00
2017-06-13T13:49:00.760Z,20.90
2017-06-13T13:51:29.027Z,21.00
2017-06-13T13:53:57.297Z,21.20
2017-06-13T13:56:25.616Z,21.30
2017-06-13T13:58:53.875Z,21.30
2017-06-13T14:01:22.173Z,21.40
2017-06-13T14:03:50.446Z,21.20
2017-06-13T14:06:17.956Z,21.20
2017-06-13T14:08:45.491Z,21.10
2017-06-13T14:11:13.754Z,21.00
2017-06-13T14:13:41.253Z,21.00
2017-06-13T14:16:08.799Z,21.00
2017-06-13T14:18:37.059Z,21.20
2017-06-13T14:21:06.223Z,21.10
2017-06-13T14:23:34.529Z,21.30
2017-06-13T14:26:02.065Z,21.30
2017-06-13T14:28:29.599Z,21.40
2017-06-13T14:30:57.156Z,21.40
2017-06-13T14:33:25.418Z,21.50
2017-06-13T14:35:53.686Z,21.50
2017-06-13T14:38:21.265Z,21.50
2017-06-13T14:40:48.777Z,21.50
2017-06-13T14:43:17.044Z,21.30
2017-06-13T14:45:45.361Z,21.40
2017-06-13T14:48:13.627Z,21.40
2017-06-13T14:50:41.899Z,21.50
2017-06-13T14:53:10.203Z,21.50
2017-06-13T14:55:37.711Z,21.50
2017-06-13T14:58:05.212Z,21.40
2017-06-13T15:00:33.525Z,21.20
2017-06-13T15:03:01.795Z,21.20
2017-06-13T15:05:29.350Z,21.20
2017-06-13T15:07:57.632Z,21.30
2017-06-13T15:10:25.146Z,21.30
2017-06-13T15:12:53.467Z,21.50
2017-06-13T15:15:20.980Z,21.50
2017-06-13T15:17:48.484Z,21.50
2017-06-13T15:20:16.804Z,21.50
2017-06-13T15:22:45.070Z,21.50
2017-06-13T15:25:12.584Z,21.50
2017-06-13T15:27:40.895Z,21.60
2017-06-13T15:30:09.214Z,21.40
2017-06-13T15:32:37.497Z,21.30
2017-06-13T15:35:05.035Z,21.30
2017-06-13T15:37:33.321Z,21.30
2017-06-13T15:40:00.871Z,21.30
2017-06-13T15:42:29.135Z,21.30
2017-06-13T15:44:56.637Z,21.30
2017-06-13T15:47:24.216Z,21.20
2017-06-13T15:49:51.767Z,21.30
2017-06-13T15:52:20.040Z,21.00
2017-06-13T15:54:48.337Z,21.10
2017-06-13T15:57:16.641Z,21.10
2017-06-13T15:59:44.206Z,21.10
2017-06-13T16:02:12.492Z,20.90
2017-06-13T16:04:40.018Z,20.90
2017-06-13T16:07:07.540Z,20.90
2017-06-13T16:09:35.856Z,21.00
2017-06-13T16:12:04.168Z,21.00
2017-06-13T16:14:31.663Z,21.00
2017-06-13T16:16:59.220Z,21.10
2017-06-13T16:19:26.724Z,20.90
2017-06-13T16:21:55.046Z,20.70
2017-06-13T16:24:23.319Z,20.80
2017-06-13T16:26:51.606Z,20.70
2017-06-13T16:29:19.140Z,20.70
2017-06-13T16:31:47.455Z,20.80
2017-06-13T16:34:15.782Z,21.00
2017-06-13T16:36:44.047Z,20.70
2017-06-13T16:39:11.598Z,20.70
2017-06-13T16:41:39.873Z,20.80
2017-06-13T16:44:07.396Z,20.80
2017-06-13T16:46:37.614Z,20.70
2017-06-13T16:49:05.882Z,20.70
2017-06-13T16:51:34.150Z,20.60
2017-06-13T16:54:01.686Z,20.60
2017-06-13T16:56:29.950Z,20.70
2017-06-13T16:58:57.507Z,20.70
2017-06-13T17:01:25.778Z,20.80
2017-06-13T17:03:54.052Z,20.90
2017-06-13T17:06:21.580Z,20.90
2017-06-13T17:08:49.084Z,21.00
2017-06-13T17:11:17.455Z,21.00
2017-06-13T17:13:45.721Z,21.00
2017-06-13T17:16:13.984Z,21.00
2017-06-13T17:18:41.523Z,21.00
2017-06-13T17:21:09.793Z,20.80
2017-06-13T17:23:38.061Z,20.70
2017-06-13T17:26:05.616Z,20.70
2017-06-13T17:28:33.929Z,20.60
2017-06-13T17:31:02.220Z,20.60
2017-06-13T17:33:29.724Z,20.60
2017-06-13T17:35:58.053Z,20.60
2017-06-13T17:38:25.564Z,20.50
2017-06-13T17:40:53.830Z,20.60
2017-06-13T17:43:22.172Z,20.60
2017-06-13T17:45:50.437Z,20.60
2017-06-13T17:48:17.927Z,20.60
2017-06-13T17:50:45.487Z,20.60
2017-06-13T17:53:13.751Z,20.70
2017-06-13T17:55:41.244Z,20.60
2017-06-13T17:58:09.523Z,20.60
2017-06-13T18:00:37.789Z,20.60
2017-06-13T18:03:06.105Z,20.50
2017-06-13T18:05:33.611Z,20.50
2017-06-13T18:08:01.126Z,20.60
2017-06-13T18:10:28.661Z,20.60
2017-06-13T18:12:56.925Z,20.60
2017-06-13T18:15:25.244Z,20.60
2017-06-13T18:17:52.748Z,20.60
2017-06-13T18:20:20.267Z,20.60
2017-06-13T18:22:48.644Z,20.60
2017-06-13T18:25:16.174Z,20.60
2017-06-13T18:27:43.690Z,20.60
2017-06-13T18:30:12.008Z,20.50
2017-06-13T18:32:40.277Z,20.50
2017-06-13T18:35:07.821Z,20.50
2017-06-13T18:37:36.132Z,20.50
2017-06-13T18:40:04.395Z,20.50
2017-06-13T18:42:32.716Z,20.40
2017-06-13T18:45:01.010Z,20.40
2017-06-13T18:47:29.294Z,20.30
2017-06-13T18:49:57.608Z,20.30
2017-06-13T18:52:25.874Z,20.20
2017-06-13T18:54:53.370Z,20.20
2017-06-13T18:57:21.687Z,20.10
2017-06-13T18:59:50.005Z,20.10
2017-06-13T19:02:18.305Z,20.00
2017-06-13T19:04:45.822Z,20.00
2017-06-13T19:07:14.124Z,19.90
2017-06-13T19:09:41.625Z,19.90
2017-06-13T19:12:09.941Z,19.90
2017-06-13T19:14:38.217Z,19.80
2017-06-13T19:17:06.486Z,19.80
2017-06-13T19:19:34.797Z,19.70
2017-06-13T19:22:03.081Z,19.70
2017-06-13T19:24:31.400Z,19.60
2017-06-13T19:27:00.237Z,19.60
2017-06-13T19:29:28.499Z,19.50
2017-06-13T19:31:56.807Z,19.50
2017-06-13T19:34:25.094Z,19.40
2017-06-13T19:36:52.631Z,19.40
2017-06-13T19:39:20.129Z,19.40
2017-06-13T19:41:48.456Z,19.20
2017-06-13T19:44:15.958Z,19.20
2017-06-13T19:46:43.463Z,19.20
2017-06-13T19:49:11.017Z,19.10
2017-06-13T19:51:39.295Z,19.00
2017-06-13T19:54:07.579Z,18.90
2017-06-13T19:56:35.137Z,18.90
2017-06-13T19:59:02.650Z,18.90
2017-06-13T20:01:30.910Z,18.80
2017-06-13T20:03:58.723Z,18.80
2017-06-13T20:06:26.232Z,18.70
2017-06-13T20:08:53.727Z,18.70
2017-06-13T20:11:22.041Z,18.50
2017-06-13T20:13:50.312Z,18.30
2017-06-13T20:16:18.648Z,18.30
2017-06-13T20:18:46.152Z,18.30
2017-06-13T20:21:14.455Z,18.10
2017-06-13T20:23:48.452Z,18.10
2017-06-13T20:26:16.742Z,18.00
2017-06-13T20:28:45.013Z,18.00
2017-06-13T20:31:13.315Z,18.00
2017-06-13T20:33:56.173Z,18.00
2017-06-13T20:36:24.483Z,17.90
2017-06-13T20:38:51.991Z,17.90
2017-06-13T20:41:20.265Z,17.80
2017-06-13T20:43:48.577Z,17.80
2017-06-13T20:46:16.846Z,17.70
2017-06-13T20:48:44.412Z,17.70
2017-06-13T20:51:12.676Z,17.70
2017-06-13T20:53:40.187Z,17.70
2017-06-13T20:56:07.729Z,17.60
2017-06-13T20:58:35.249Z,17.50
2017-06-13T21:01:03.507Z,17.60
2017-06-13T21:03:31.062Z,17.50
2017-06-13T21:05:58.564Z,17.50
2017-06-13T21:08:26.069Z,17.50
2017-06-13T21:10:53.628Z,17.50
2017-06-13T21:13:21.896Z,17.30
2017-06-13T21:15:50.165Z,17.40
2017-06-13T21:18:18.471Z,17.40
2017-06-13T21:20:45.968Z,17.40
2017-06-13T21:23:14.261Z,17.40
2017-06-13T21:25:41.755Z,17.40
2017-06-13T21:28:10.052Z,17.10
2017-06-13T21:30:37.596Z,17.10
2017-06-13T21:33:05.853Z,17.10
2017-06-13T21:35:33.345Z,17.00
2017-06-13T21:38:01.647Z,17.00
2017-06-13T21:40:29.172Z,17.00
2017-06-13T21:42:57.439Z,17.00
2017-06-13T21:45:24.960Z,17.00
2017-06-13T21:47:52.455Z,17.00
2017-06-13T21:50:20.017Z,16.90
2017-06-13T21:52:48.283Z,16.80
2017-06-13T21:55:16.561Z,16.70
2017-06-13T21:57:44.091Z,16.60
2017-06-13T22:00:11.588Z,16.70
2017-06-13T22:02:39.884Z,16.60
2017-06-13T22:05:07.377Z,16.50
2017-06-13T22:07:35.676Z,16.60
2017-06-13T22:10:03.177Z,16.60
2017-06-13T22:12:31.445Z,16.50
2017-06-13T22:14:59.739Z,16.40
2017-06-13T22:17:28.014Z,16.40
2017-06-13T22:19:56.480Z,16.40
2017-06-13T22:22:24.745Z,16.20
2017-06-13T22:24:52.279Z,16.20
2017-06-13T22:27:19.816Z,16.30
2017-06-13T22:29:48.080Z,16.30
2017-06-13T22:32:16.334Z,16.40
2017-06-13T22:34:43.857Z,16.30
2017-06-13T22:37:11.352Z,16.40
2017-06-13T22:39:38.877Z,16.30
2017-06-13T22:42:07.147Z,16.10
2017-06-13T22:44:34.684Z,16.10
2017-06-13T22:47:02.955Z,16.00
2017-06-13T22:49:30.448Z,16.00
2017-06-13T22:51:58.753Z,16.00
2017-06-13T22:54:27.016Z,16.00
2017-06-13T22:56:54.563Z,16.00
2017-06-13T22:59:22.058Z,16.00
2017-06-13T23:01:50.323Z,16.00
2017-06-13T23:04:18.611Z,15.90
2017-06-13T23:06:46.107Z,15.90
2017-06-13T23:09:14.401Z,15.70
2017-06-13T23:11:42.668Z,15.70
2017-06-13T23:14:10.196Z,15.70
2017-06-13T23:16:38.491Z,15.70
2017-06-13T23:19:05.989Z,15.70
2017-06-13T23:21:34.296Z,15.60
2017-06-13T23:24:01.791Z,15.60
2017-06-13T23:26:30.048Z,15.60
2017-06-13T23:28:58.347Z,15.60
2017-06-13T23:31:26.604Z,15.50
2017-06-13T23:33:54.921Z,15.50
2017-06-13T23:36:23.180Z,15.50
2017-06-13T23:38:50.677Z,15.50
2017-06-13T23:41:18.976Z,15.30
2017-06-13T23:43:47.243Z,15.30
2017-06-13T23:46:14.780Z,15.20
2017-06-13T23:48:42.280Z,15.30
2017-06-13T23:51:10.539Z,15.30
2017-06-13T23:53:38.827Z,15.30
2017-06-13T23:56:06.316Z,15.30
2017-06-13T23:58:34.623Z,15.40
